KSMX/SMX METAR and TAF weather

Enter ICAO airport designator
Station Type Date Time Source
KSMX METAR 2023/02/05 13:51 UTC NOAA

KSMX 051351Z 00000KT 3SM BR FEW025 OVC032 09/09 A3024 RMK AO2 SLP243 T00940094 $


Station Type Date Time Source
KSMX Decoded METAR 2023/02/05 13:51 UTC NOAA

SANTA MARIA PUBLIC AIRPORT, CA, United States (KSMX) 34-54N 120-28W 74M
Feb 05, 2023 - 08:51 AM EST / 2023.02.05 1351 UTC
Wind: Calm:0
Visibility: 3 mile(s):0
Sky conditions: overcast
Weather: mist
Temperature: 48.9 F (9.4 C)
Dew Point: 48.9 F (9.4 C)
Relative Humidity: 100%
Pressure (altimeter): 30.24 in. Hg (1024 hPa)
ob: KSMX 051351Z 00000KT 3SM BR FEW025 OVC032 09/09 A3024 RMK AO2 SLP243 T00940094
cycle: 14

Station Type Date Time Source
KSMX TAF 2023/02/05 14:06 UTC NOAA

TAF
AMD KSMX 051404Z 0514/0612 VRB03KT 3SM BR FEW025 OVC030
FM052000 31015G25KT P6SM VCSH BKN050
FM060300 35010G20KT P6SM FEW050 FEW250

Example: see airport list